Time;durP1;ratioP1;P1;durP2;ratioP2;P2;SDS_P1;SDS_P2;PMS_P1;PMS_P2;Temp;Humidity;BMP_temperature;BMP_pressure;BME280_temperature;BME280_humidity;BME280_pressure;Samples;Min_cycle;Max_cycle;Signal;HPM_P1;HPM_P2
2021/10/16 00:01:33;;;;;;;0.20;0.20;;;;;;;13.88;61.79;102344.66;5035304;28;20041;-78
2021/10/16 00:04:00;;;;;;;0.10;0.10;;;;;;;13.86;61.39;102342.91;5019634;28;20385;-79
2021/10/16 00:06:27;;;;;;;0.15;0.15;;;;;;;13.84;61.42;102334.91;5034618;28;20052;-79
2021/10/16 00:08:53;;;;;;;0.22;0.22;;;;;;;13.84;61.31;102334.91;5028573;28;20030;-79
2021/10/16 00:11:20;;;;;;;0.10;0.10;;;;;;;13.85;61.35;102339.34;5025226;28;20052;-78
2021/10/16 00:13:46;;;;;;;0.10;0.10;;;;;;;13.87;61.24;102340.22;5048763;22;20092;-84
2021/10/16 00:16:13;;;;;;;0.10;0.10;;;;;;;13.86;61.49;102335.78;5016825;28;20037;-84
2021/10/16 00:18:39;;;;;;;0.10;0.10;;;;;;;13.88;61.23;102339.31;5009849;28;20101;-83
2021/10/16 00:21:07;;;;;;;0.08;0.08;;;;;;;13.88;61.43;102347.31;5003236;28;20022;-83
2021/10/16 00:23:33;;;;;;;0.10;0.10;;;;;;;13.90;61.05;102344.63;5001205;28;20164;-84
2021/10/16 00:26:00;;;;;;;0.10;0.10;;;;;;;13.92;61.02;102342.84;4990764;28;20482;-84
2021/10/16 00:28:26;;;;;;;0.10;0.10;;;;;;;13.93;60.86;102338.38;4978460;28;20121;-84
2021/10/16 00:30:53;;;;;;;0.10;0.10;;;;;;;13.90;60.04;102339.28;4988512;28;20034;-83
2021/10/16 00:33:20;;;;;;;0.08;0.08;;;;;;;13.93;60.56;102341.03;4984305;28;20030;-83
2021/10/16 00:35:47;;;;;;;0.20;0.20;;;;;;;13.93;60.57;102335.72;4980956;28;20157;-83
2021/10/16 00:38:13;;;;;;;0.20;0.20;;;;;;;13.96;60.61;102333.91;4990961;28;20026;-83
2021/10/16 00:40:39;;;;;;;0.10;0.10;;;;;;;13.98;61.00;102333.88;4980207;28;20054;-84
2021/10/16 00:43:06;;;;;;;0.10;0.10;;;;;;;13.99;60.59;102333.00;4987841;28;20025;-85
2021/10/16 00:45:33;;;;;;;0.10;0.10;;;;;;;14.01;60.52;102341.88;4989419;28;20033;-85
2021/10/16 00:47:59;;;;;;;0.10;0.10;;;;;;;14.00;60.79;102332.09;4992020;28;20034;-84
2021/10/16 00:50:26;;;;;;;0.15;0.15;;;;;;;14.00;61.33;102338.28;4976948;28;20038;-85
2021/10/16 00:52:52;;;;;;;0.10;0.10;;;;;;;13.99;60.84;102333.00;4988572;28;20058;-85
2021/10/16 00:55:22;;;;;;;0.10;0.10;;;;;;;14.03;61.04;102326.72;4984271;28;20056;-84
2021/10/16 00:57:48;;;;;;;0.10;0.10;;;;;;;14.03;60.56;102329.38;4980813;28;20023;-83
2021/10/16 01:00:15;;;;;;;1.85;0.40;;;;;;;14.05;60.67;102330.25;4990923;28;20429;-83
2021/10/16 01:02:42;;;;;;;0.10;0.10;;;;;;;14.03;59.89;102330.28;4978528;28;20023;-84
2021/10/16 01:05:09;;;;;;;0.10;0.10;;;;;;;14.02;59.89;102333.84;4986354;28;20035;-84
2021/10/16 01:07:37;;;;;;;0.17;0.17;;;;;;;14.02;59.83;102327.66;4989250;28;20026;-84
2021/10/16 01:10:07;;;;;;;0.10;0.10;;;;;;;14.05;59.80;102332.94;4990798;28;20050;-84
2021/10/16 01:12:36;;;;;;;0.10;0.10;;;;;;;14.04;60.36;102333.81;4994131;28;20057;-85
2021/10/16 01:15:06;;;;;;;0.10;0.10;;;;;;;14.03;60.86;102329.38;4986086;28;20126;-84
2021/10/16 01:17:34;;;;;;;0.10;0.10;;;;;;;14.03;60.46;102326.72;4984513;28;20436;-83
2021/10/16 01:20:06;;;;;;;0.10;0.10;;;;;;;14.06;60.87;102329.38;4978851;28;20062;-84
2021/10/16 01:22:34;;;;;;;0.10;0.10;;;;;;;14.03;61.23;102327.63;4977867;28;20019;-84
2021/10/16 01:25:03;;;;;;;0.15;0.15;;;;;;;14.03;61.26;102326.72;4986729;28;20603;-84
2021/10/16 01:27:31;;;;;;;3.83;0.63;;;;;;;14.02;61.00;102323.19;4986022;28;20070;-85
2021/10/16 01:29:57;;;;;;;0.10;0.10;;;;;;;14.03;60.91;102318.72;4978916;28;20138;-84
2021/10/16 01:32:24;;;;;;;0.10;0.10;;;;;;;14.03;60.86;102319.63;4990476;28;20033;-84
2021/10/16 01:34:50;;;;;;;0.08;0.08;;;;;;;14.01;60.31;102320.53;4980323;28;20045;-83
2021/10/16 01:37:17;;;;;;;0.20;0.20;;;;;;;14.00;60.69;102313.44;4984506;28;20466;-84
2021/10/16 01:39:43;;;;;;;0.10;0.10;;;;;;;14.00;60.95;102316.97;4987343;28;20195;-84
2021/10/16 01:42:14;;;;;;;0.30;0.30;;;;;;;14.03;60.83;102316.06;4977643;28;20035;-84
2021/10/16 01:44:41;;;;;;;0.20;0.20;;;;;;;14.02;60.67;102316.97;4989261;28;20046;-85
2021/10/16 01:47:08;;;;;;;0.10;0.10;;;;;;;14.00;60.83;102314.31;4984610;28;20027;-84
2021/10/16 01:49:36;;;;;;;0.10;0.10;;;;;;;14.00;60.86;102308.97;4974441;28;20035;-84
2021/10/16 01:52:04;;;;;;;0.10;0.10;;;;;;;14.00;61.27;102308.97;4989896;28;20123;-84
2021/10/16 01:54:30;;;;;;;0.20;0.20;;;;;;;14.01;60.82;102308.09;4977267;28;20477;-84
2021/10/16 01:56:57;;;;;;;1.92;1.80;;;;;;;13.99;60.49;102311.66;4986796;28;20478;-83
2021/10/16 01:59:25;;;;;;;0.10;0.10;;;;;;;13.98;60.42;102310.81;4984575;28;20466;-85
2021/10/16 02:01:53;;;;;;;0.10;0.10;;;;;;;13.97;60.76;102298.38;4979170;28;20030;-85
2021/10/16 02:04:20;;;;;;;0.10;0.10;;;;;;;13.94;60.18;102301.06;4990155;28;20107;-84
2021/10/16 02:06:47;;;;;;;0.40;0.40;;;;;;;13.95;60.51;102304.63;4979430;28;20110;-84
2021/10/16 02:09:13;;;;;;;0.13;0.13;;;;;;;13.88;59.47;102309.09;4984455;28;20118;-85
2021/10/16 02:11:40;;;;;;;0.22;0.22;;;;;;;13.88;60.24;102309.09;4986504;28;20066;-84
2021/10/16 02:14:08;;;;;;;0.10;0.10;;;;;;;13.84;59.73;102310.91;4977020;28;20530;-86
2021/10/16 02:16:35;;;;;;;0.10;0.10;;;;;;;13.83;60.12;102301.19;4989455;28;20031;-84
2021/10/16 02:19:03;;;;;;;0.10;0.10;;;;;;;13.84;60.46;102305.59;4985012;28;20061;-84
2021/10/16 02:21:30;;;;;;;0.10;0.10;;;;;;;13.84;60.47;102308.25;4985311;28;20027;-84
2021/10/16 02:23:57;;;;;;;0.10;0.10;;;;;;;13.84;60.60;102302.94;4978538;28;20110;-83
2021/10/16 02:26:23;;;;;;;0.82;0.65;;;;;;;13.85;60.52;102299.38;4990019;28;20118;-83
2021/10/16 02:28:50;;;;;;;0.10;0.10;;;;;;;13.84;60.56;102297.59;4979848;28;20071;-83
2021/10/16 02:31:16;;;;;;;0.10;0.10;;;;;;;13.86;60.52;102294.94;4984499;28;20114;-85
2021/10/16 02:33:43;;;;;;;0.10;0.10;;;;;;;13.86;60.65;102295.81;4987023;28;20030;-83
2021/10/16 02:36:09;;;;;;;0.10;0.10;;;;;;;13.86;60.75;102295.81;4977221;28;20095;-84
2021/10/16 02:38:36;;;;;;;7.10;2.35;;;;;;;13.85;60.15;102299.38;4989273;28;20065;-84
2021/10/16 02:41:02;;;;;;;0.10;0.10;;;;;;;13.86;60.26;102298.47;4981784;28;20122;-84
2021/10/16 02:43:29;;;;;;;0.10;0.10;;;;;;;13.86;60.06;102294.94;4982407;28;20034;-84
2021/10/16 02:45:55;;;;;;;0.25;0.25;;;;;;;13.86;60.15;102301.13;4979637;28;20027;-85
2021/10/16 02:48:21;;;;;;;0.10;0.10;;;;;;;13.87;60.80;102302.91;4989789;28;20192;-83
2021/10/16 02:50:48;;;;;;;0.10;0.10;;;;;;;13.87;60.62;102307.38;4979396;28;20019;-84
2021/10/16 02:53:14;;;;;;;0.63;0.63;;;;;;;13.85;60.32;102299.38;4984115;28;20165;-83
2021/10/16 02:55:41;;;;;;;0.10;0.10;;;;;;;13.86;60.62;102306.47;4987031;28;20038;-84
2021/10/16 02:58:07;;;;;;;0.20;0.20;;;;;;;13.86;60.65;102308.25;4979955;28;20125;-84
2021/10/16 03:00:33;;;;;;;0.10;0.10;;;;;;;13.88;60.72;102311.78;4990099;28;20225;-85
2021/10/16 03:03:00;;;;;;;0.52;0.52;;;;;;;13.85;60.65;102310.03;4983788;28;20265;-84
2021/10/16 03:05:26;;;;;;;0.10;0.10;;;;;;;13.86;60.74;102310.94;4986063;28;20038;-84
2021/10/16 03:07:52;;;;;;;0.10;0.10;;;;;;;13.87;60.65;102307.38;4991094;28;20031;-84
2021/10/16 03:10:19;;;;;;;0.08;0.08;;;;;;;13.88;60.83;102315.34;4980602;28;20038;-84
2021/10/16 03:12:45;;;;;;;0.20;0.20;;;;;;;13.88;60.88;102310.00;4991581;28;20035;-84
2021/10/16 03:15:11;;;;;;;0.10;0.10;;;;;;;13.89;61.03;102317.13;4986111;28;20485;-84
2021/10/16 03:17:38;;;;;;;0.10;0.10;;;;;;;13.90;60.70;102315.31;4984371;28;20046;-84
2021/10/16 03:20:06;;;;;;;0.20;0.20;;;;;;;13.90;60.54;102315.31;4992613;28;20026;-84
2021/10/16 03:22:32;;;;;;;0.10;0.10;;;;;;;13.88;60.52;102314.44;4996311;28;20022;-84
2021/10/16 03:24:58;;;;;;;0.10;0.10;;;;;;;13.87;60.27;102304.72;4988987;28;20027;-85
2021/10/16 03:27:25;;;;;;;0.10;0.10;;;;;;;13.86;60.42;102316.25;4987345;28;20035;-85
2021/10/16 03:29:51;;;;;;;0.10;0.10;;;;;;;13.86;60.05;102308.25;4991253;28;20073;-84
2021/10/16 03:32:17;;;;;;;0.22;0.22;;;;;;;13.86;60.48;102303.81;4991163;28;20065;-84
2021/10/16 03:34:44;;;;;;;0.10;0.10;;;;;;;13.86;60.65;102300.28;4981498;28;20030;-85
2021/10/16 03:37:10;;;;;;;0.52;0.52;;;;;;;13.86;60.48;102301.13;4987340;28;20039;-85
2021/10/16 03:39:36;;;;;;;0.20;0.20;;;;;;;13.85;60.56;102299.38;4988533;28;20027;-85
2021/10/16 03:42:02;;;;;;;0.10;0.10;;;;;;;13.85;60.76;102299.38;4980117;28;20031;-84
2021/10/16 03:44:29;;;;;;;0.10;0.10;;;;;;;13.85;60.63;102294.03;4988565;28;20035;-84
2021/10/16 03:46:55;;;;;;;0.10;0.10;;;;;;;13.84;60.85;102296.72;4986722;28;20454;-84
2021/10/16 03:49:21;;;;;;;0.10;0.10;;;;;;;13.81;60.53;102291.44;4982257;28;20495;-85
2021/10/16 03:51:48;;;;;;;0.10;0.10;;;;;;;13.80;60.48;102295.88;4990091;28;20058;-84
2021/10/16 03:54:15;;;;;;;0.10;0.10;;;;;;;13.76;60.64;102299.47;4979483;28;20041;-84
2021/10/16 03:56:41;;;;;;;0.43;0.43;;;;;;;13.77;60.22;102295.03;4991219;28;20022;-84
2021/10/16 03:59:07;;;;;;;0.10;0.10;;;;;;;13.76;60.21;102296.81;4983547;28;20031;-84
2021/10/16 04:01:33;;;;;;;0.10;0.10;;;;;;;13.77;60.84;102300.34;4985642;28;20027;-84
2021/10/16 04:04:00;;;;;;;0.10;0.10;;;;;;;13.74;59.91;102301.25;4994219;28;20087;-84
2021/10/16 04:06:26;;;;;;;0.10;0.10;;;;;;;13.74;60.37;102288.84;4991998;28;20026;-85
2021/10/16 04:08:53;;;;;;;0.20;0.20;;;;;;;13.75;60.40;102292.38;4982002;28;20038;-85
2021/10/16 04:11:19;;;;;;;1.17;0.77;;;;;;;13.73;61.02;102288.84;4985366;28;20038;-84
2021/10/16 04:13:45;;;;;;;0.10;0.10;;;;;;;13.73;60.26;102283.50;4989548;28;20489;-86
2021/10/16 04:16:11;;;;;;;0.10;0.10;;;;;;;13.66;60.09;102284.50;4986925;28;20038;-85
2021/10/16 04:18:37;;;;;;;0.10;0.10;;;;;;;13.64;60.04;102288.94;4994928;28;20023;-85
2021/10/16 04:21:03;;;;;;;0.10;0.10;;;;;;;13.62;60.30;102283.63;4994761;28;20470;-84
2021/10/16 04:23:30;;;;;;;0.10;0.10;;;;;;;13.59;60.25;102291.63;4990509;28;20085;-83
2021/10/16 04:25:56;;;;;;;0.10;0.10;;;;;;;13.55;60.31;102289.91;4988213;28;20057;-85
2021/10/16 04:28:22;;;;;;;0.55;0.55;;;;;;;13.54;60.37;102283.69;4978710;28;20082;-85
2021/10/16 04:30:48;;;;;;;0.10;0.10;;;;;;;13.51;60.99;102290.84;4994509;28;20034;-85
2021/10/16 04:33:14;;;;;;;0.10;0.10;;;;;;;13.49;60.91;102280.19;4994795;28;20035;-84
2021/10/16 04:35:41;;;;;;;0.10;0.10;;;;;;;13.47;60.87;102286.44;4982006;28;20030;-84
2021/10/16 04:38:08;;;;;;;0.10;0.10;;;;;;;13.45;61.02;102294.44;4991401;28;20026;-84
2021/10/16 04:40:34;;;;;;;0.35;0.35;;;;;;;13.38;60.82;102292.72;4976824;28;20041;-84
2021/10/16 04:43:05;;;;;;;0.10;0.10;;;;;;;13.37;60.96;102285.59;4990373;28;20034;-84
2021/10/16 04:45:32;;;;;;;0.10;0.10;;;;;;;13.31;60.72;102286.53;4991716;28;20110;-85
2021/10/16 04:47:59;;;;;;;0.10;0.10;;;;;;;13.30;60.90;102291.88;4990153;28;20038;-85
2021/10/16 04:50:26;;;;;;;0.10;0.10;;;;;;;13.24;61.39;102285.69;4978587;28;20078;-84
2021/10/16 04:52:52;;;;;;;0.10;0.10;;;;;;;13.21;61.65;102287.53;4988444;28;20110;-83
2021/10/16 04:55:21;;;;;;;0.00;0.00;;;;;;;13.18;61.01;102295.50;4984653;28;20543;-85
2021/10/16 04:57:47;;;;;;;0.28;0.28;;;;;;;13.15;61.65;102293.75;4980938;28;20027;-85
2021/10/16 05:00:13;;;;;;;0.28;0.28;;;;;;;13.12;60.93;102299.09;4991361;28;20351;-85
2021/10/16 05:02:39;;;;;;;0.10;0.10;;;;;;;13.10;61.55;102299.09;4979547;28;20084;-85
2021/10/16 05:05:06;;;;;;;0.10;0.10;;;;;;;13.10;61.96;102292.91;4993403;28;20038;-85
2021/10/16 05:07:32;;;;;;;0.17;0.17;;;;;;;13.07;61.39;102298.25;4994256;28;20023;-85
2021/10/16 05:09:58;;;;;;;0.05;0.05;;;;;;;13.04;61.59;102292.94;4994449;28;20069;-85
2021/10/16 05:12:24;;;;;;;0.10;0.10;;;;;;;13.01;61.53;102299.19;4982736;28;20060;-84
2021/10/16 05:14:50;;;;;;;0.10;0.10;;;;;;;12.99;61.56;102300.09;4993606;28;20037;-84
2021/10/16 05:17:17;;;;;;;0.10;0.10;;;;;;;12.94;61.51;102300.09;4993943;28;20418;-84
2021/10/16 05:19:43;;;;;;;0.10;0.10;;;;;;;12.90;61.86;102296.59;4987926;28;20101;-84
2021/10/16 05:22:09;;;;;;;0.10;0.10;;;;;;;12.88;62.13;102298.34;4994042;28;20142;-84
2021/10/16 05:24:35;;;;;;;0.10;0.10;;;;;;;12.85;61.97;102293.06;4993777;28;20034;-84
2021/10/16 05:27:01;;;;;;;0.20;0.20;;;;;;;12.82;61.90;102290.41;4994033;28;20032;-85
2021/10/16 05:29:28;;;;;;;0.10;0.10;;;;;;;12.81;61.92;102291.34;4993794;28;20031;-86
2021/10/16 05:31:54;;;;;;;0.10;0.10;;;;;;;12.79;61.23;102293.09;4993999;28;20192;-85
2021/10/16 05:34:20;;;;;;;0.10;0.10;;;;;;;12.77;61.43;102290.47;4977341;28;20034;-85
2021/10/16 05:36:46;;;;;;;0.10;0.10;;;;;;;12.76;62.05;102287.78;4992623;28;20022;-85
2021/10/16 05:39:13;;;;;;;0.30;0.30;;;;;;;12.74;61.73;102289.59;4989503;28;20058;-84
2021/10/16 05:41:39;;;;;;;0.10;0.10;;;;;;;12.73;62.39;102290.47;4993988;28;20034;-85
2021/10/16 05:44:05;;;;;;;0.10;0.10;;;;;;;12.73;62.32;102288.69;4978114;28;20041;-84
2021/10/16 05:46:34;;;;;;;0.10;0.10;;;;;;;12.73;62.26;102294.00;4986610;28;20141;-84
2021/10/16 05:49:00;;;;;;;0.10;0.10;;;;;;;12.69;61.97;102286.09;4994211;28;20081;-84
2021/10/16 05:51:27;;;;;;;0.10;0.10;;;;;;;12.69;62.22;102296.72;4993254;28;20097;-85
2021/10/16 05:53:53;;;;;;;0.10;0.10;;;;;;;12.66;61.69;102291.41;4978968;28;20041;-84
2021/10/16 05:56:19;;;;;;;0.10;0.10;;;;;;;12.66;61.98;102294.06;4993667;28;20081;-84
2021/10/16 05:58:45;;;;;;;0.10;0.10;;;;;;;12.66;61.71;102288.75;4988525;28;20035;-85
2021/10/16 06:01:11;;;;;;;0.10;0.10;;;;;;;12.65;62.01;102284.31;4983072;28;20077;-85
2021/10/16 06:03:37;;;;;;;0.10;0.10;;;;;;;12.63;62.01;102289.66;4989079;28;20114;-84
2021/10/16 06:06:03;;;;;;;0.10;0.10;;;;;;;12.65;61.71;102289.63;4993888;28;20058;-84
2021/10/16 06:08:29;;;;;;;0.55;0.52;;;;;;;12.65;61.57;102289.63;4987680;28;20080;-85
2021/10/16 06:10:56;;;;;;;0.10;0.10;;;;;;;12.67;62.18;102282.53;4987047;28;20055;-85
2021/10/16 06:13:23;;;;;;;0.10;0.10;;;;;;;12.69;61.50;102296.72;4983556;28;20036;-85
2021/10/16 06:15:49;;;;;;;0.10;0.10;;;;;;;12.67;61.89;102293.19;4992185;28;20110;-84
2021/10/16 06:18:16;;;;;;;0.10;0.10;;;;;;;12.68;62.05;102284.31;4976832;28;20031;-84
2021/10/16 06:20:42;;;;;;;0.10;0.10;;;;;;;12.69;61.50;102294.06;4992948;28;20050;-84
2021/10/16 06:23:08;;;;;;;0.10;0.10;;;;;;;12.70;61.79;102299.38;4992187;28;20121;-84
2021/10/16 06:25:37;;;;;;;0.10;0.10;;;;;;;12.75;61.78;102300.22;4984753;28;20043;-87
2021/10/16 06:28:04;;;;;;;0.30;0.30;;;;;;;12.76;62.14;102303.75;4985708;28;20370;-85
2021/10/16 06:30:30;;;;;;;0.10;0.10;;;;;;;12.79;61.39;102298.44;4975957;28;20050;-88
2021/10/16 06:32:56;;;;;;;0.10;0.10;;;;;;;12.83;61.69;102305.50;4992261;28;20033;-85
2021/10/16 06:35:22;;;;;;;0.10;0.10;;;;;;;12.83;61.23;102300.16;4993954;28;20030;-85
2021/10/16 06:37:48;;;;;;;0.00;0.00;;;;;;;12.85;61.25;102301.06;4992110;28;20038;-85
2021/10/16 06:40:14;;;;;;;0.00;0.00;;;;;;;12.88;60.66;102306.34;4991274;28;20027;-85
2021/10/16 06:42:40;;;;;;;0.10;0.10;;;;;;;12.88;61.13;102306.34;4983342;28;20034;-85
2021/10/16 06:45:07;;;;;;;0.10;0.10;;;;;;;12.93;60.57;102308.97;4986562;28;20062;-85
2021/10/16 06:47:33;;;;;;;0.10;0.10;;;;;;;12.95;60.70;102308.06;4988313;28;20039;-85
2021/10/16 06:49:59;;;;;;;0.10;0.10;;;;;;;12.93;60.63;102307.22;4993281;28;20027;-85
2021/10/16 06:52:25;;;;;;;0.10;0.10;;;;;;;12.94;60.33;102303.63;4993727;28;20037;-85
2021/10/16 06:54:51;;;;;;;0.10;0.10;;;;;;;13.01;60.75;102315.16;4994469;28;20113;-81
2021/10/16 06:57:18;;;;;;;0.10;0.10;;;;;;;13.05;60.58;102310.69;4991314;28;20028;-84
2021/10/16 06:59:44;;;;;;;0.10;0.10;;;;;;;13.11;60.86;102313.31;4992072;28;20035;-85
2021/10/16 07:02:10;;;;;;;0.10;0.10;;;;;;;13.16;60.81;102308.84;4984966;28;20104;-86
2021/10/16 07:04:36;;;;;;;1.08;0.57;;;;;;;13.21;60.71;102307.03;4990717;28;20023;-83
2021/10/16 07:07:03;;;;;;;0.10;0.10;;;;;;;13.21;61.16;102312.34;4988450;28;20121;-83
2021/10/16 07:09:29;;;;;;;0.10;0.10;;;;;;;13.27;60.65;102312.28;4986940;28;20038;-83
2021/10/16 07:11:56;;;;;;;0.10;0.10;;;;;;;13.29;60.38;102312.28;4986317;28;20447;-83
2021/10/16 07:14:23;;;;;;;0.10;0.10;;;;;;;13.34;60.90;102313.13;4996080;28;20030;-84
2021/10/16 07:16:49;;;;;;;0.10;0.10;;;;;;;13.40;60.64;102312.22;4995242;28;20034;-83
2021/10/16 07:19:15;;;;;;;0.05;0.05;;;;;;;13.44;60.59;102308.63;4995730;28;20061;-83
2021/10/16 07:21:41;;;;;;;0.00;0.00;;;;;;;13.47;60.45;102302.41;4996525;28;20445;-83
2021/10/16 07:24:08;;;;;;;0.10;0.10;;;;;;;13.49;60.41;102311.28;4995076;28;20436;-83
2021/10/16 07:26:36;;;;;;;0.08;0.08;;;;;;;13.48;60.04;102310.38;4996367;28;20035;-83
2021/10/16 07:29:02;;;;;;;0.10;0.10;;;;;;;13.52;60.29;102312.13;4995874;28;20030;-83
2021/10/16 07:31:28;;;;;;;0.10;0.10;;;;;;;13.55;60.30;102320.06;4996100;28;20057;-84
2021/10/16 07:33:56;;;;;;;0.10;0.10;;;;;;;13.59;60.67;102312.94;4995852;28;20027;-83
2021/10/16 07:36:23;;;;;;;0.10;0.10;;;;;;;13.59;60.70;102319.16;4995834;28;20137;-83
2021/10/16 07:38:49;;;;;;;0.10;0.10;;;;;;;13.62;60.00;102322.69;4994478;28;20122;-85
2021/10/16 07:41:15;;;;;;;0.28;0.28;;;;;;;13.67;60.76;102318.19;4995451;28;20496;-84
2021/10/16 07:43:41;;;;;;;0.10;0.10;;;;;;;13.72;60.83;102313.69;4995819;28;20034;-87
2021/10/16 07:46:07;;;;;;;0.03;0.03;;;;;;;13.78;60.74;102313.63;4995718;28;20105;-85
2021/10/16 07:48:34;;;;;;;0.85;0.85;;;;;;;13.86;60.79;102321.59;4995756;28;20047;-85
2021/10/16 07:51:00;;;;;;;0.10;0.10;;;;;;;13.88;60.57;102325.09;4994503;28;20038;-85
2021/10/16 07:53:26;;;;;;;0.10;0.10;;;;;;;13.95;59.66;102329.47;4992771;28;20485;-85
2021/10/16 07:55:52;;;;;;;0.10;0.10;;;;;;;14.02;60.07;102327.66;4994477;28;20038;-85
2021/10/16 07:58:19;;;;;;;0.10;0.10;;;;;;;14.09;60.20;102334.66;4993927;28;20158;-85
2021/10/16 08:00:46;;;;;;;0.10;0.10;;;;;;;14.16;60.10;102332.81;4990771;28;20421;-85
2021/10/16 08:03:12;;;;;;;0.00;0.00;;;;;;;14.19;60.17;102325.66;4995052;28;20034;-85
2021/10/16 08:05:38;;;;;;;0.10;0.10;;;;;;;14.30;59.70;102332.66;4995258;28;20073;-85
2021/10/16 08:08:04;;;;;;;0.10;0.10;;;;;;;14.40;59.58;102331.63;4995325;28;20041;-84
2021/10/16 08:10:30;;;;;;;0.25;0.25;;;;;;;14.41;59.09;102330.75;4995357;28;20041;-85
2021/10/16 08:12:57;;;;;;;0.08;0.08;;;;;;;14.47;58.91;102328.00;4995552;28;20030;-85
2021/10/16 08:15:23;;;;;;;0.10;0.10;;;;;;;14.50;58.85;102330.59;4994381;28;20035;-85
2021/10/16 08:17:49;;;;;;;0.52;0.30;;;;;;;14.54;58.14;102337.69;4994544;28;20030;-85
2021/10/16 08:20:15;;;;;;;0.00;0.00;;;;;;;14.51;57.69;102335.06;4994985;28;20022;-85
2021/10/16 08:22:42;;;;;;;0.10;0.10;;;;;;;14.66;58.72;102331.34;4994757;28;20397;-88
2021/10/16 08:25:11;;;;;;;0.10;0.10;;;;;;;14.73;58.33;102324.16;4994957;28;20045;-86
2021/10/16 08:27:37;;;;;;;0.10;0.10;;;;;;;14.76;57.92;102337.44;4994561;28;20087;-87
2021/10/16 08:30:06;;;;;;;0.10;0.10;;;;;;;14.81;57.52;102324.91;4994887;28;20038;-86
2021/10/16 08:32:33;;;;;;;0.10;0.10;;;;;;;14.84;57.57;102324.88;4994897;28;20034;-86
2021/10/16 08:34:59;;;;;;;0.10;0.10;;;;;;;14.90;57.77;102328.34;4994775;28;20026;-85
2021/10/16 08:37:25;;;;;;;0.43;0.43;;;;;;;14.95;57.69;102326.50;4994866;28;20027;-86
2021/10/16 08:39:51;;;;;;;0.10;0.10;;;;;;;14.96;58.09;102326.47;4994271;28;20053;-85
2021/10/16 08:42:17;;;;;;;0.00;0.00;;;;;;;15.06;58.03;102329.03;4993704;28;20034;-85
2021/10/16 08:44:44;;;;;;;0.00;0.00;;;;;;;15.09;58.27;102336.97;4993166;28;20445;-85
2021/10/16 08:47:12;;;;;;;0.30;0.30;;;;;;;15.14;57.85;102336.00;4994244;28;20111;-85
2021/10/16 08:49:40;;;;;;;0.10;0.10;;;;;;;15.18;58.27;102336.84;4994559;28;20037;-86
2021/10/16 08:52:07;;;;;;;0.10;0.10;;;;;;;15.15;57.98;102337.78;4994169;28;20066;-86
2021/10/16 08:54:36;;;;;;;0.10;0.10;;;;;;;15.20;57.79;102338.59;4994217;28;20034;-87
2021/10/16 08:57:03;;;;;;;0.70;0.70;;;;;;;15.24;57.76;102343.88;4994723;28;20050;-85
2021/10/16 08:59:29;;;;;;;1.65;1.40;;;;;;;15.18;57.76;102348.41;4994338;28;20037;-85
2021/10/16 09:04:38;;;;;;;0.80;0.52;;;;;;;15.17;57.07;102353.75;5031539;28;20992;-84
2021/10/16 09:07:24;;;;;;;0.00;0.00;;;;;;;15.30;56.79;102360.69;5019021;28;20389;-85
2021/10/16 09:09:51;;;;;;;0.40;0.40;;;;;;;15.22;56.63;102356.38;4998170;28;20202;-85
2021/10/16 09:12:18;;;;;;;0.10;0.10;;;;;;;15.26;56.98;102358.09;5029804;28;20097;-85
2021/10/16 09:14:47;;;;;;;0.10;0.10;;;;;;;15.29;57.25;102361.59;5030495;28;20041;-85
2021/10/16 09:17:15;;;;;;;0.10;0.10;;;;;;;15.25;57.15;102353.63;5027254;28;20042;-85
2021/10/16 09:19:42;;;;;;;0.10;0.10;;;;;;;15.29;56.95;102358.00;5030205;28;20033;-85
2021/10/16 09:22:12;;;;;;;1.45;1.35;;;;;;;15.28;56.51;102361.63;5030142;28;20485;-85
2021/10/16 09:27:23;;;;;;;0.10;0.10;;;;;;;15.30;56.11;102360.69;5069318;28;20411;-84
2021/10/16 09:29:51;;;;;;;0.10;0.10;;;;;;;15.37;56.75;102350.78;5070160;28;20036;-84
2021/10/16 09:32:23;;;;;;;0.10;0.10;;;;;;;15.42;56.66;102348.91;5070314;28;20040;-84
2021/10/16 09:34:58;;;;;;;0.10;0.10;;;;;;;15.43;55.79;102356.03;5060816;28;20025;-85
2021/10/16 09:37:24;;;;;;;0.20;0.20;;;;;;;15.52;56.74;102355.84;5050279;28;20091;-83
2021/10/16 09:45:14;;;;;;;0.20;0.20;;;;;;;15.64;56.11;102348.56;5076899;28;20835;-84
2021/10/16 09:47:56;;;;;;;0.20;0.20;;;;;;;15.79;55.79;102358.13;5070378;28;20037;-84
2021/10/16 09:50:23;;;;;;;0.10;0.10;;;;;;;15.81;55.52;102357.19;5070090;28;20078;-85
2021/10/16 09:52:50;;;;;;;0.08;0.08;;;;;;;15.84;55.35;102356.28;5070273;28;20021;-84
2021/10/16 09:55:17;;;;;;;0.10;0.10;;;;;;;15.81;54.07;102357.19;5070005;28;20029;-84
2021/10/16 09:57:45;;;;;;;0.25;0.25;;;;;;;15.91;55.31;102362.38;5069921;28;20032;-83
2021/10/16 10:00:13;;;;;;;0.10;0.10;;;;;;;15.98;54.93;102356.00;5069991;28;20025;-84
2021/10/16 10:02:43;;;;;;;1.05;1.05;;;;;;;15.99;54.75;102365.81;5069838;28;20060;-84
2021/10/16 10:05:09;;;;;;;0.20;0.20;;;;;;;16.07;55.08;102363.84;5049965;28;20104;-85
2021/10/16 10:07:36;;;;;;;0.10;0.10;;;;;;;16.12;54.89;102369.13;5049864;28;20029;-85
2021/10/16 10:10:05;;;;;;;0.10;0.10;;;;;;;16.14;54.73;102365.50;5048486;28;20120;-84
2021/10/16 10:12:33;;;;;;;0.68;0.68;;;;;;;16.08;53.41;102370.97;5049825;28;20025;-84
2021/10/16 10:14:59;;;;;;;0.10;0.10;;;;;;;16.11;53.76;102376.28;5049695;28;20035;-87
2021/10/16 10:17:29;;;;;;;0.10;0.10;;;;;;;16.05;54.36;102378.16;5064827;28;20039;-85
2021/10/16 10:20:05;;;;;;;0.47;0.47;;;;;;;16.05;53.82;102375.47;5069788;28;20041;-85
2021/10/16 10:22:34;;;;;;;0.10;0.10;;;;;;;15.99;54.04;102372.00;5069756;28;20035;-85
2021/10/16 10:25:02;;;;;;;0.10;0.10;;;;;;;15.94;53.13;102362.34;5069472;28;20033;-85
2021/10/16 10:27:41;;;;;;;0.10;0.10;;;;;;;15.96;52.78;102366.75;5068372;28;20057;-85
2021/10/16 10:30:07;;;;;;;0.20;0.20;;;;;;;15.97;53.81;102362.25;5071064;28;20028;-85
2021/10/16 10:32:35;;;;;;;4.25;1.48;;;;;;;15.95;53.52;102369.41;5069931;28;20463;-85
2021/10/16 10:35:08;;;;;;;0.00;0.00;;;;;;;16.03;53.32;102362.16;5068920;28;20033;-85
2021/10/16 10:42:59;;;;;;;0.10;0.10;;;;;;;16.08;53.99;102362.06;5110614;27;20388;-85
2021/10/16 10:48:14;;;;;;;1.88;1.00;;;;;;;16.14;53.89;102359.28;5123231;27;20408;-84
2021/10/16 10:53:27;;;;;;;1.63;1.58;;;;;;;16.27;54.10;102349.22;5090419;27;20444;-85
2021/10/16 10:55:56;;;;;;;0.20;0.20;;;;;;;16.35;53.69;102352.63;5052656;28;20033;-85
2021/10/16 10:58:23;;;;;;;0.32;0.32;;;;;;;16.40;53.40;102345.41;5050222;28;20099;-84
2021/10/16 11:00:52;;;;;;;0.30;0.30;;;;;;;16.54;53.50;102350.44;5050470;28;20065;-84
2021/10/16 11:09:14;;;;;;;0.00;0.00;;;;;;;16.85;51.46;102324.81;5090348;27;20413;-84
2021/10/16 11:12:00;;;;;;;0.80;0.80;;;;;;;16.98;52.35;102324.53;5070926;28;20040;-85
2021/10/16 11:14:32;;;;;;;0.10;0.10;;;;;;;17.02;52.69;102328.00;5064649;28;20030;-85
2021/10/16 11:17:01;;;;;;;0.10;0.10;;;;;;;17.00;52.12;102318.25;5050810;28;20480;-85
2021/10/16 11:19:28;;;;;;;0.10;0.10;;;;;;;17.10;51.04;102320.69;5040793;28;20287;-85
2021/10/16 11:21:56;;;;;;;1.02;0.95;;;;;;;17.14;50.42;102317.00;5050046;28;20057;-85
2021/10/16 11:24:24;;;;;;;0.10;0.10;;;;;;;17.18;50.27;102314.25;5048867;28;20029;-85
2021/10/16 11:26:54;;;;;;;0.10;0.10;;;;;;;17.18;50.43;102311.59;5049913;28;20025;-85
2021/10/16 11:29:40;;;;;;;0.15;0.15;;;;;;;17.40;49.59;102311.94;5030155;28;20061;-85
2021/10/16 11:35:04;;;;;;;0.10;0.10;;;;;;;17.37;47.48;102312.91;5080070;27;20414;-85
2021/10/16 11:37:37;;;;;;;1.30;0.80;;;;;;;17.43;46.62;102307.38;5070433;28;20037;-85
2021/10/16 11:40:08;;;;;;;0.10;0.10;;;;;;;17.49;47.26;102302.78;5070244;28;20029;-85
2021/10/16 11:42:35;;;;;;;0.00;0.00;;;;;;;17.58;47.94;102299.84;5069964;28;20032;-85
2021/10/16 11:45:01;;;;;;;0.35;0.35;;;;;;;17.69;47.80;102302.25;5070124;28;20083;-85
2021/10/16 11:47:29;;;;;;;0.13;0.13;;;;;;;17.65;46.24;102304.13;5070168;28;20108;-84
2021/10/16 11:49:55;;;;;;;0.10;0.10;;;;;;;17.67;47.38;102302.31;5068780;28;20048;-85
2021/10/16 11:52:22;;;;;;;0.15;0.15;;;;;;;17.70;46.15;102299.53;5069858;28;20452;-85
2021/10/16 11:55:07;;;;;;;0.43;0.43;;;;;;;17.76;47.47;102291.31;5070044;28;20079;-85